Terminal Aerodrome Forecast
Issued by NWS

Home | Current Version | Previous Version | Text Only | Print | Product List | Glossary On
Versions: 1 2 3 4 5 6 7 8 9 10 11 12 13 14 15 16 17 18 19 20 21 22 23 24 25
000
FTUS46 KLOX 270500
TAFLAX
TAF
KLAX 270520Z 2706/2812 09005KT 6SM -RA BR SCT035 OVC070
     FM270900 09005KT P6SM VCSH BKN080 BKN120
     FM271100 05006KT P6SM SCT080
     FM272000 27010KT P6SM FEW200
     FM280500 VRB03KT P6SM SKC
     FM280900 VRB03KT 5SM BR SKC=

USA.gov is the U.S. government's official web portal to all federal, state and local government web resources and services.